sensor_id;sensor_type;location;lat;lon;timestamp;P1;durP1;ratioP1;P2;durP2;ratioP2
14756;SDS011;40502;47.710;13.072;2022-07-06T00:01:29;2.67;;;0.90;;
14756;SDS011;40502;47.710;13.072;2022-07-06T00:04:33;2.90;;;1.00;;
14756;SDS011;40502;47.710;13.072;2022-07-06T00:07:37;1.17;;;0.70;;
14756;SDS011;40502;47.710;13.072;2022-07-06T00:10:42;1.87;;;1.10;;
14756;SDS011;40502;47.710;13.072;2022-07-06T00:13:46;2.20;;;1.00;;
14756;SDS011;40502;47.710;13.072;2022-07-06T00:16:49;1.17;;;0.83;;
14756;SDS011;40502;47.710;13.072;2022-07-06T00:19:53;1.30;;;0.87;;
14756;SDS011;40502;47.710;13.072;2022-07-06T00:22:57;2.37;;;0.90;;
14756;SDS011;40502;47.710;13.072;2022-07-06T00:26:02;1.20;;;1.00;;
14756;SDS011;40502;47.710;13.072;2022-07-06T00:29:06;1.37;;;1.07;;
14756;SDS011;40502;47.710;13.072;2022-07-06T00:32:10;1.20;;;0.80;;
14756;SDS011;40502;47.710;13.072;2022-07-06T00:35:14;3.33;;;1.20;;
14756;SDS011;40502;47.710;13.072;2022-07-06T00:38:18;1.57;;;1.10;;
14756;SDS011;40502;47.710;13.072;2022-07-06T00:41:23;0.83;;;0.80;;
14756;SDS011;40502;47.710;13.072;2022-07-06T00:44:27;2.83;;;1.30;;
14756;SDS011;40502;47.710;13.072;2022-07-06T00:47:31;1.00;;;0.70;;
14756;SDS011;40502;47.710;13.072;2022-07-06T00:50:34;1.63;;;1.20;;
14756;SDS011;40502;47.710;13.072;2022-07-06T00:53:39;1.40;;;0.90;;
14756;SDS011;40502;47.710;13.072;2022-07-06T00:56:45;2.77;;;1.00;;
14756;SDS011;40502;47.710;13.072;2022-07-06T00:59:49;2.30;;;0.90;;
14756;SDS011;40502;47.710;13.072;2022-07-06T01:02:53;2.47;;;1.10;;
14756;SDS011;40502;47.710;13.072;2022-07-06T01:05:57;1.80;;;0.97;;
14756;SDS011;40502;47.710;13.072;2022-07-06T01:09:01;0.80;;;0.80;;
14756;SDS011;40502;47.710;13.072;2022-07-06T01:12:08;2.80;;;1.03;;
14756;SDS011;40502;47.710;13.072;2022-07-06T01:15:13;1.53;;;0.90;;
14756;SDS011;40502;47.710;13.072;2022-07-06T01:18:19;1.00;;;0.90;;
14756;SDS011;40502;47.710;13.072;2022-07-06T01:21:25;1.30;;;1.00;;
14756;SDS011;40502;47.710;13.072;2022-07-06T01:24:28;1.10;;;0.80;;
14756;SDS011;40502;47.710;13.072;2022-07-06T01:27:33;1.93;;;1.07;;
14756;SDS011;40502;47.710;13.072;2022-07-06T01:30:39;1.83;;;0.90;;
14756;SDS011;40502;47.710;13.072;2022-07-06T01:33:43;1.43;;;1.00;;
14756;SDS011;40502;47.710;13.072;2022-07-06T01:36:48;1.00;;;0.90;;
14756;SDS011;40502;47.710;13.072;2022-07-06T01:39:53;1.17;;;0.80;;
14756;SDS011;40502;47.710;13.072;2022-07-06T01:43:01;1.70;;;0.90;;
14756;SDS011;40502;47.710;13.072;2022-07-06T01:46:05;2.10;;;0.80;;
14756;SDS011;40502;47.710;13.072;2022-07-06T01:49:09;1.90;;;1.10;;
14756;SDS011;40502;47.710;13.072;2022-07-06T01:52:15;2.70;;;0.90;;
14756;SDS011;40502;47.710;13.072;2022-07-06T01:55:19;1.37;;;1.00;;
14756;SDS011;40502;47.710;13.072;2022-07-06T01:58:23;1.00;;;0.90;;
14756;SDS011;40502;47.710;13.072;2022-07-06T02:01:27;1.30;;;1.10;;
14756;SDS011;40502;47.710;13.072;2022-07-06T02:04:31;1.17;;;1.00;;
14756;SDS011;40502;47.710;13.072;2022-07-06T02:07:37;1.37;;;0.80;;
14756;SDS011;40502;47.710;13.072;2022-07-06T02:10:42;1.27;;;0.80;;
14756;SDS011;40502;47.710;13.072;2022-07-06T02:13:46;1.90;;;1.07;;
14756;SDS011;40502;47.710;13.072;2022-07-06T02:16:49;1.40;;;1.00;;
14756;SDS011;40502;47.710;13.072;2022-07-06T02:19:53;0.97;;;0.87;;
14756;SDS011;40502;47.710;13.072;2022-07-06T02:22:59;1.13;;;0.90;;
14756;SDS011;40502;47.710;13.072;2022-07-06T02:26:03;3.03;;;0.97;;
14756;SDS011;40502;47.710;13.072;2022-07-06T02:29:07;1.20;;;0.80;;
14756;SDS011;40502;47.710;13.072;2022-07-06T02:32:11;1.60;;;1.00;;
14756;SDS011;40502;47.710;13.072;2022-07-06T02:35:14;1.43;;;0.90;;
14756;SDS011;40502;47.710;13.072;2022-07-06T02:38:20;2.30;;;1.00;;
14756;SDS011;40502;47.710;13.072;2022-07-06T02:41:24;1.23;;;0.80;;
14756;SDS011;40502;47.710;13.072;2022-07-06T02:44:29;1.20;;;0.70;;
14756;SDS011;40502;47.710;13.072;2022-07-06T02:47:32;1.90;;;1.07;;
14756;SDS011;40502;47.710;13.072;2022-07-06T02:50:38;1.93;;;1.00;;
14756;SDS011;40502;47.710;13.072;2022-07-06T02:53:43;1.70;;;0.83;;
14756;SDS011;40502;47.710;13.072;2022-07-06T02:56:47;1.10;;;1.00;;
14756;SDS011;40502;47.710;13.072;2022-07-06T02:59:54;1.40;;;0.90;;
14756;SDS011;40502;47.710;13.072;2022-07-06T03:02:58;1.67;;;0.90;;
14756;SDS011;40502;47.710;13.072;2022-07-06T03:06:03;1.23;;;1.00;;
14756;SDS011;40502;47.710;13.072;2022-07-06T03:09:09;2.30;;;0.90;;
14756;SDS011;40502;47.710;13.072;2022-07-06T03:12:13;1.20;;;0.90;;
14756;SDS011;40502;47.710;13.072;2022-07-06T03:15:18;0.80;;;0.80;;
14756;SDS011;40502;47.710;13.072;2022-07-06T03:18:22;1.00;;;0.87;;
14756;SDS011;40502;47.710;13.072;2022-07-06T03:21:27;2.10;;;0.93;;
14756;SDS011;40502;47.710;13.072;2022-07-06T03:24:32;1.57;;;0.83;;
14756;SDS011;40502;47.710;13.072;2022-07-06T03:27:36;1.20;;;0.80;;
14756;SDS011;40502;47.710;13.072;2022-07-06T03:30:40;1.67;;;0.97;;
14756;SDS011;40502;47.710;13.072;2022-07-06T03:33:44;1.27;;;0.80;;
14756;SDS011;40502;47.710;13.072;2022-07-06T03:36:48;1.07;;;0.80;;
14756;SDS011;40502;47.710;13.072;2022-07-06T03:39:54;1.23;;;1.00;;
14756;SDS011;40502;47.710;13.072;2022-07-06T03:42:57;1.00;;;0.90;;
14756;SDS011;40502;47.710;13.072;2022-07-06T03:46:04;1.03;;;0.90;;
14756;SDS011;40502;47.710;13.072;2022-07-06T03:49:09;1.30;;;1.00;;
14756;SDS011;40502;47.710;13.072;2022-07-06T03:52:13;1.77;;;1.00;;
14756;SDS011;40502;47.710;13.072;2022-07-06T03:55:25;1.30;;;0.90;;
14756;SDS011;40502;47.710;13.072;2022-07-06T03:58:33;0.80;;;0.80;;
14756;SDS011;40502;47.710;13.072;2022-07-06T04:01:38;1.23;;;0.83;;
14756;SDS011;40502;47.710;13.072;2022-07-06T04:04:43;2.10;;;1.00;;
14756;SDS011;40502;47.710;13.072;2022-07-06T04:07:47;1.40;;;0.90;;
14756;SDS011;40502;47.710;13.072;2022-07-06T04:10:52;1.40;;;0.90;;
14756;SDS011;40502;47.710;13.072;2022-07-06T04:13:57;1.30;;;0.87;;
14756;SDS011;40502;47.710;13.072;2022-07-06T04:17:00;1.30;;;1.00;;
14756;SDS011;40502;47.710;13.072;2022-07-06T04:20:26;1.30;;;0.90;;
14756;SDS011;40502;47.710;13.072;2022-07-06T04:23:31;1.40;;;0.93;;
14756;SDS011;40502;47.710;13.072;2022-07-06T04:26:38;0.70;;;0.70;;
14756;SDS011;40502;47.710;13.072;2022-07-06T04:29:42;1.77;;;0.90;;
14756;SDS011;40502;47.710;13.072;2022-07-06T04:32:46;0.77;;;0.73;;
14756;SDS011;40502;47.710;13.072;2022-07-06T04:35:50;0.80;;;0.80;;
14756;SDS011;40502;47.710;13.072;2022-07-06T04:38:58;0.80;;;0.80;;
14756;SDS011;40502;47.710;13.072;2022-07-06T04:42:04;0.70;;;0.70;;
14756;SDS011;40502;47.710;13.072;2022-07-06T04:45:08;0.87;;;0.80;;
14756;SDS011;40502;47.710;13.072;2022-07-06T04:48:13;0.87;;;0.80;;
14756;SDS011;40502;47.710;13.072;2022-07-06T04:51:17;0.70;;;0.70;;
14756;SDS011;40502;47.710;13.072;2022-07-06T04:54:21;1.03;;;0.80;;
14756;SDS011;40502;47.710;13.072;2022-07-06T04:57:26;2.23;;;1.00;;
14756;SDS011;40502;47.710;13.072;2022-07-06T05:00:33;1.43;;;0.90;;
14756;SDS011;40502;47.710;13.072;2022-07-06T05:03:38;0.80;;;0.80;;
14756;SDS011;40502;47.710;13.072;2022-07-06T05:06:45;0.80;;;0.80;;
14756;SDS011;40502;47.710;13.072;2022-07-06T05:09:49;1.00;;;0.80;;
14756;SDS011;40502;47.710;13.072;2022-07-06T05:12:56;1.30;;;0.90;;
14756;SDS011;40502;47.710;13.072;2022-07-06T05:16:01;1.20;;;0.90;;
14756;SDS011;40502;47.710;13.072;2022-07-06T05:19:06;1.00;;;0.70;;
14756;SDS011;40502;47.710;13.072;2022-07-06T05:22:10;1.50;;;0.70;;
14756;SDS011;40502;47.710;13.072;2022-07-06T05:25:14;1.30;;;0.80;;
14756;SDS011;40502;47.710;13.072;2022-07-06T05:28:20;0.87;;;0.80;;
14756;SDS011;40502;47.710;13.072;2022-07-06T05:31:24;0.80;;;0.80;;
14756;SDS011;40502;47.710;13.072;2022-07-06T05:34:28;1.37;;;0.80;;
14756;SDS011;40502;47.710;13.072;2022-07-06T05:37:32;1.10;;;0.70;;
14756;SDS011;40502;47.710;13.072;2022-07-06T05:40:36;1.23;;;0.90;;
14756;SDS011;40502;47.710;13.072;2022-07-06T05:43:42;1.17;;;1.00;;
14756;SDS011;40502;47.710;13.072;2022-07-06T05:46:46;1.30;;;1.00;;
14756;SDS011;40502;47.710;13.072;2022-07-06T05:49:50;0.93;;;0.83;;
14756;SDS011;40502;47.710;13.072;2022-07-06T05:53:18;0.80;;;0.70;;
14756;SDS011;40502;47.710;13.072;2022-07-06T05:56:26;1.90;;;1.00;;
14756;SDS011;40502;47.710;13.072;2022-07-06T05:59:31;1.07;;;0.97;;
14756;SDS011;40502;47.710;13.072;2022-07-06T06:02:38;1.43;;;1.00;;
14756;SDS011;40502;47.710;13.072;2022-07-06T06:05:45;1.07;;;0.97;;
14756;SDS011;40502;47.710;13.072;2022-07-06T06:08:51;0.70;;;0.70;;
14756;SDS011;40502;47.710;13.072;2022-07-06T06:11:55;1.43;;;0.87;;
14756;SDS011;40502;47.710;13.072;2022-07-06T06:15:01;0.97;;;0.90;;
14756;SDS011;40502;47.710;13.072;2022-07-06T06:18:06;0.70;;;0.70;;
14756;SDS011;40502;47.710;13.072;2022-07-06T06:21:10;2.70;;;0.90;;
14756;SDS011;40502;47.710;13.072;2022-07-06T06:24:14;1.30;;;0.90;;
14756;SDS011;40502;47.710;13.072;2022-07-06T06:27:17;0.80;;;0.80;;
14756;SDS011;40502;47.710;13.072;2022-07-06T06:30:23;1.33;;;0.90;;
14756;SDS011;40502;47.710;13.072;2022-07-06T06:33:28;1.33;;;1.00;;
14756;SDS011;40502;47.710;13.072;2022-07-06T06:36:32;1.87;;;1.00;;
14756;SDS011;40502;47.710;13.072;2022-07-06T06:39:36;0.73;;;0.70;;
14756;SDS011;40502;47.710;13.072;2022-07-06T06:42:40;0.60;;;0.60;;
14756;SDS011;40502;47.710;13.072;2022-07-06T06:45:48;0.67;;;0.67;;
14756;SDS011;40502;47.710;13.072;2022-07-06T06:48:52;0.80;;;0.80;;
14756;SDS011;40502;47.710;13.072;2022-07-06T06:51:56;0.70;;;0.70;;
14756;SDS011;40502;47.710;13.072;2022-07-06T06:55:20;0.80;;;0.80;;
14756;SDS011;40502;47.710;13.072;2022-07-06T06:58:24;0.80;;;0.80;;
14756;SDS011;40502;47.710;13.072;2022-07-06T07:01:30;0.70;;;0.70;;
14756;SDS011;40502;47.710;13.072;2022-07-06T07:04:35;1.23;;;0.83;;
14756;SDS011;40502;47.710;13.072;2022-07-06T07:07:39;0.83;;;0.80;;
14756;SDS011;40502;47.710;13.072;2022-07-06T07:10:43;0.97;;;0.70;;
14756;SDS011;40502;47.710;13.072;2022-07-06T07:13:46;0.70;;;0.70;;
14756;SDS011;40502;47.710;13.072;2022-07-06T07:16:52;0.90;;;0.73;;
14756;SDS011;40502;47.710;13.072;2022-07-06T07:19:55;1.10;;;0.80;;
14756;SDS011;40502;47.710;13.072;2022-07-06T07:22:59;2.17;;;0.77;;
14756;SDS011;40502;47.710;13.072;2022-07-06T07:26:03;0.70;;;0.70;;
14756;SDS011;40502;47.710;13.072;2022-07-06T07:29:08;1.20;;;0.80;;
14756;SDS011;40502;47.710;13.072;2022-07-06T07:32:14;0.80;;;0.80;;
14756;SDS011;40502;47.710;13.072;2022-07-06T07:35:17;1.03;;;0.80;;
14756;SDS011;40502;47.710;13.072;2022-07-06T07:38:21;1.37;;;0.83;;
14756;SDS011;40502;47.710;13.072;2022-07-06T07:41:26;1.73;;;0.90;;
14756;SDS011;40502;47.710;13.072;2022-07-06T07:44:30;1.07;;;0.80;;
14756;SDS011;40502;47.710;13.072;2022-07-06T07:47:35;1.47;;;0.93;;
14756;SDS011;40502;47.710;13.072;2022-07-06T07:50:40;1.13;;;0.67;;
14756;SDS011;40502;47.710;13.072;2022-07-06T07:53:44;0.97;;;0.80;;
14756;SDS011;40502;47.710;13.072;2022-07-06T07:56:48;1.10;;;0.80;;
14756;SDS011;40502;47.710;13.072;2022-07-06T07:59:51;3.60;;;0.90;;
14756;SDS011;40502;47.710;13.072;2022-07-06T08:02:57;1.70;;;1.00;;
14756;SDS011;40502;47.710;13.072;2022-07-06T08:06:01;1.03;;;0.70;;
14756;SDS011;40502;47.710;13.072;2022-07-06T08:09:05;2.20;;;0.70;;
14756;SDS011;40502;47.710;13.072;2022-07-06T08:12:09;2.70;;;0.80;;
14756;SDS011;40502;47.710;13.072;2022-07-06T08:15:13;1.43;;;0.93;;
14756;SDS011;40502;47.710;13.072;2022-07-06T08:18:19;1.63;;;0.73;;
14756;SDS011;40502;47.710;13.072;2022-07-06T08:21:24;1.67;;;0.67;;
14756;SDS011;40502;47.710;13.072;2022-07-06T08:24:28;2.27;;;1.00;;
14756;SDS011;40502;47.710;13.072;2022-07-06T08:27:32;0.70;;;0.70;;
14756;SDS011;40502;47.710;13.072;2022-07-06T08:30:36;1.00;;;0.70;;
14756;SDS011;40502;47.710;13.072;2022-07-06T08:33:41;2.60;;;0.80;;
14756;SDS011;40502;47.710;13.072;2022-07-06T08:36:45;1.00;;;0.73;;
14756;SDS011;40502;47.710;13.072;2022-07-06T08:39:49;0.70;;;0.60;;
14756;SDS011;40502;47.710;13.072;2022-07-06T08:42:53;1.67;;;0.70;;
14756;SDS011;40502;47.710;13.072;2022-07-06T08:45:57;0.60;;;0.60;;
14756;SDS011;40502;47.710;13.072;2022-07-06T08:49:04;1.87;;;0.90;;
14756;SDS011;40502;47.710;13.072;2022-07-06T08:52:09;1.67;;;0.70;;
14756;SDS011;40502;47.710;13.072;2022-07-06T08:55:15;1.97;;;0.90;;
14756;SDS011;40502;47.710;13.072;2022-07-06T08:58:20;1.00;;;0.63;;
14756;SDS011;40502;47.710;13.072;2022-07-06T09:01:26;1.13;;;0.80;;
14756;SDS011;40502;47.710;13.072;2022-07-06T09:04:32;0.87;;;0.67;;
14756;SDS011;40502;47.710;13.072;2022-07-06T09:07:38;0.97;;;0.70;;
14756;SDS011;40502;47.710;13.072;2022-07-06T09:11:01;0.90;;;0.70;;
14756;SDS011;40502;47.710;13.072;2022-07-06T09:14:05;1.00;;;0.80;;
14756;SDS011;40502;47.710;13.072;2022-07-06T09:17:08;1.93;;;0.90;;
14756;SDS011;40502;47.710;13.072;2022-07-06T09:20:19;0.80;;;0.77;;
14756;SDS011;40502;47.710;13.072;2022-07-06T09:23:23;1.53;;;0.60;;
14756;SDS011;40502;47.710;13.072;2022-07-06T09:26:28;1.20;;;0.70;;
14756;SDS011;40502;47.710;13.072;2022-07-06T09:29:32;1.40;;;0.70;;
14756;SDS011;40502;47.710;13.072;2022-07-06T09:32:40;1.67;;;0.87;;
14756;SDS011;40502;47.710;13.072;2022-07-06T09:35:46;1.17;;;0.80;;
14756;SDS011;40502;47.710;13.072;2022-07-06T09:38:51;0.90;;;0.50;;
14756;SDS011;40502;47.710;13.072;2022-07-06T09:41:55;1.77;;;0.80;;
14756;SDS011;40502;47.710;13.072;2022-07-06T09:45:02;0.80;;;0.73;;
14756;SDS011;40502;47.710;13.072;2022-07-06T09:48:09;1.73;;;0.70;;
14756;SDS011;40502;47.710;13.072;2022-07-06T09:51:16;1.13;;;0.70;;
14756;SDS011;40502;47.710;13.072;2022-07-06T09:54:27;1.90;;;0.93;;
14756;SDS011;40502;47.710;13.072;2022-07-06T09:57:31;1.57;;;1.07;;
14756;SDS011;40502;47.710;13.072;2022-07-06T10:00:35;2.40;;;1.13;;
14756;SDS011;40502;47.710;13.072;2022-07-06T10:03:40;4.57;;;1.30;;
14756;SDS011;40502;47.710;13.072;2022-07-06T10:06:46;1.90;;;0.90;;
14756;SDS011;40502;47.710;13.072;2022-07-06T10:09:50;2.70;;;1.10;;
14756;SDS011;40502;47.710;13.072;2022-07-06T10:12:56;3.30;;;1.20;;
14756;SDS011;40502;47.710;13.072;2022-07-06T10:16:00;3.03;;;1.20;;
14756;SDS011;40502;47.710;13.072;2022-07-06T10:19:05;2.60;;;1.10;;
14756;SDS011;40502;47.710;13.072;2022-07-06T10:22:11;3.77;;;1.37;;
14756;SDS011;40502;47.710;13.072;2022-07-06T10:25:17;4.90;;;1.50;;
14756;SDS011;40502;47.710;13.072;2022-07-06T10:28:21;4.10;;;1.20;;
14756;SDS011;40502;47.710;13.072;2022-07-06T10:31:26;4.38;;;1.25;;
14756;SDS011;40502;47.710;13.072;2022-07-06T10:34:31;3.43;;;0.80;;
14756;SDS011;40502;47.710;13.072;2022-07-06T10:37:38;3.77;;;1.03;;
14756;SDS011;40502;47.710;13.072;2022-07-06T10:40:51;5.07;;;1.27;;
14756;SDS011;40502;47.710;13.072;2022-07-06T10:44:15;6.20;;;1.33;;
14756;SDS011;40502;47.710;13.072;2022-07-06T10:47:24;6.33;;;1.40;;
14756;SDS011;40502;47.710;13.072;2022-07-06T10:50:33;4.70;;;1.30;;
14756;SDS011;40502;47.710;13.072;2022-07-06T10:53:40;4.43;;;1.10;;
14756;SDS011;40502;47.710;13.072;2022-07-06T10:56:47;7.50;;;1.33;;
14756;SDS011;40502;47.710;13.072;2022-07-06T10:59:59;4.57;;;1.47;;
14756;SDS011;40502;47.710;13.072;2022-07-06T11:06:36;5.30;;;1.60;;
14756;SDS011;40502;47.710;13.072;2022-07-06T11:09:43;4.07;;;1.30;;
14756;SDS011;40502;47.710;13.072;2022-07-06T11:12:58;4.97;;;1.50;;
14756;SDS011;40502;47.710;13.072;2022-07-06T11:16:02;4.30;;;1.53;;
14756;SDS011;40502;47.710;13.072;2022-07-06T11:19:08;5.93;;;1.57;;
14756;SDS011;40502;47.710;13.072;2022-07-06T11:22:14;5.23;;;1.40;;
14756;SDS011;40502;47.710;13.072;2022-07-06T11:25:20;3.93;;;1.40;;
14756;SDS011;40502;47.710;13.072;2022-07-06T11:28:24;5.03;;;1.30;;
14756;SDS011;40502;47.710;13.072;2022-07-06T11:31:29;4.13;;;1.40;;
14756;SDS011;40502;47.710;13.072;2022-07-06T11:34:33;6.80;;;1.17;;
14756;SDS011;40502;47.710;13.072;2022-07-06T11:37:38;4.30;;;1.40;;
14756;SDS011;40502;47.710;13.072;2022-07-06T11:40:46;6.27;;;1.57;;
14756;SDS011;40502;47.710;13.072;2022-07-06T11:43:50;3.60;;;1.37;;
14756;SDS011;40502;47.710;13.072;2022-07-06T11:46:54;4.13;;;1.20;;
14756;SDS011;40502;47.710;13.072;2022-07-06T11:49:58;3.40;;;1.10;;
14756;SDS011;40502;47.710;13.072;2022-07-06T11:53:02;2.37;;;0.77;;
14756;SDS011;40502;47.710;13.072;2022-07-06T11:56:07;1.10;;;0.80;;
14756;SDS011;40502;47.710;13.072;2022-07-06T11:59:11;2.57;;;0.83;;
14756;SDS011;40502;47.710;13.072;2022-07-06T12:02:15;3.13;;;0.87;;
14756;SDS011;40502;47.710;13.072;2022-07-06T12:05:28;1.93;;;0.80;;
14756;SDS011;40502;47.710;13.072;2022-07-06T12:08:40;1.97;;;0.97;;
14756;SDS011;40502;47.710;13.072;2022-07-06T12:11:46;1.70;;;0.90;;
14756;SDS011;40502;47.710;13.072;2022-07-06T12:14:50;1.53;;;0.70;;
14756;SDS011;40502;47.710;13.072;2022-07-06T12:17:56;1.70;;;0.73;;
14756;SDS011;40502;47.710;13.072;2022-07-06T12:20:59;2.53;;;0.70;;
14756;SDS011;40502;47.710;13.072;2022-07-06T12:24:05;2.23;;;0.80;;
14756;SDS011;40502;47.710;13.072;2022-07-06T12:27:12;2.20;;;0.70;;
14756;SDS011;40502;47.710;13.072;2022-07-06T12:30:17;1.60;;;0.70;;
14756;SDS011;40502;47.710;13.072;2022-07-06T12:33:24;1.37;;;0.70;;
14756;SDS011;40502;47.710;13.072;2022-07-06T12:36:30;1.60;;;0.57;;
14756;SDS011;40502;47.710;13.072;2022-07-06T12:39:40;1.57;;;0.70;;
14756;SDS011;40502;47.710;13.072;2022-07-06T12:42:46;2.47;;;0.70;;
14756;SDS011;40502;47.710;13.072;2022-07-06T12:45:51;0.93;;;0.50;;
14756;SDS011;40502;47.710;13.072;2022-07-06T12:48:55;1.90;;;0.73;;
14756;SDS011;40502;47.710;13.072;2022-07-06T12:52:11;1.63;;;0.67;;
14756;SDS011;40502;47.710;13.072;2022-07-06T12:55:16;1.13;;;0.90;;
14756;SDS011;40502;47.710;13.072;2022-07-06T12:58:21;1.60;;;0.80;;
14756;SDS011;40502;47.710;13.072;2022-07-06T13:01:27;1.33;;;0.77;;
14756;SDS011;40502;47.710;13.072;2022-07-06T13:04:31;2.57;;;0.70;;
14756;SDS011;40502;47.710;13.072;2022-07-06T13:07:36;2.30;;;0.73;;
14756;SDS011;40502;47.710;13.072;2022-07-06T13:10:41;3.30;;;0.87;;
14756;SDS011;40502;47.710;13.072;2022-07-06T13:13:48;1.53;;;0.60;;
14756;SDS011;40502;47.710;13.072;2022-07-06T13:16:52;0.93;;;0.50;;
14756;SDS011;40502;47.710;13.072;2022-07-06T13:19:57;2.20;;;0.63;;
14756;SDS011;40502;47.710;13.072;2022-07-06T13:23:01;1.97;;;0.53;;
14756;SDS011;40502;47.710;13.072;2022-07-06T13:26:05;4.33;;;0.80;;
14756;SDS011;40502;47.710;13.072;2022-07-06T13:29:11;3.10;;;0.80;;
14756;SDS011;40502;47.710;13.072;2022-07-06T13:32:16;2.40;;;0.70;;
14756;SDS011;40502;47.710;13.072;2022-07-06T13:35:20;1.53;;;0.53;;
14756;SDS011;40502;47.710;13.072;2022-07-06T13:38:24;2.07;;;0.70;;
14756;SDS011;40502;47.710;13.072;2022-07-06T13:41:27;1.70;;;0.60;;
14756;SDS011;40502;47.710;13.072;2022-07-06T13:44:33;1.67;;;0.50;;
14756;SDS011;40502;47.710;13.072;2022-07-06T13:47:36;2.07;;;0.60;;
14756;SDS011;40502;47.710;13.072;2022-07-06T13:50:40;1.47;;;0.70;;
14756;SDS011;40502;47.710;13.072;2022-07-06T13:53:44;2.07;;;0.80;;
14756;SDS011;40502;47.710;13.072;2022-07-06T13:56:48;2.17;;;0.87;;
14756;SDS011;40502;47.710;13.072;2022-07-06T13:59:53;2.67;;;0.70;;
14756;SDS011;40502;47.710;13.072;2022-07-06T14:02:57;2.13;;;1.00;;
14756;SDS011;40502;47.710;13.072;2022-07-06T14:06:01;3.20;;;0.90;;
14756;SDS011;40502;47.710;13.072;2022-07-06T14:09:05;2.23;;;0.97;;
14756;SDS011;40502;47.710;13.072;2022-07-06T14:12:09;2.67;;;0.90;;
14756;SDS011;40502;47.710;13.072;2022-07-06T14:15:17;2.83;;;0.60;;
14756;SDS011;40502;47.710;13.072;2022-07-06T14:18:26;1.90;;;0.60;;
14756;SDS011;40502;47.710;13.072;2022-07-06T14:21:30;1.20;;;0.70;;
14756;SDS011;40502;47.710;13.072;2022-07-06T14:24:34;1.87;;;0.67;;
14756;SDS011;40502;47.710;13.072;2022-07-06T14:27:38;2.53;;;0.73;;
14756;SDS011;40502;47.710;13.072;2022-07-06T14:30:44;1.77;;;0.50;;
14756;SDS011;40502;47.710;13.072;2022-07-06T14:33:48;3.73;;;0.90;;
14756;SDS011;40502;47.710;13.072;2022-07-06T14:36:52;1.40;;;0.80;;
14756;SDS011;40502;47.710;13.072;2022-07-06T14:39:56;2.30;;;0.80;;
14756;SDS011;40502;47.710;13.072;2022-07-06T14:43:00;2.27;;;1.00;;
14756;SDS011;40502;47.710;13.072;2022-07-06T14:46:05;1.53;;;0.73;;
14756;SDS011;40502;47.710;13.072;2022-07-06T14:49:09;1.80;;;0.60;;
14756;SDS011;40502;47.710;13.072;2022-07-06T14:52:21;1.63;;;0.60;;
14756;SDS011;40502;47.710;13.072;2022-07-06T14:55:25;1.80;;;0.83;;
14756;SDS011;40502;47.710;13.072;2022-07-06T14:58:29;3.20;;;0.67;;
14756;SDS011;40502;47.710;13.072;2022-07-06T15:01:34;2.23;;;0.70;;
14756;SDS011;40502;47.710;13.072;2022-07-06T15:04:38;2.23;;;0.67;;
14756;SDS011;40502;47.710;13.072;2022-07-06T15:07:41;1.77;;;0.70;;
14756;SDS011;40502;47.710;13.072;2022-07-06T15:10:56;1.67;;;0.80;;
14756;SDS011;40502;47.710;13.072;2022-07-06T15:14:00;0.90;;;0.67;;
14756;SDS011;40502;47.710;13.072;2022-07-06T15:17:05;1.60;;;0.70;;
14756;SDS011;40502;47.710;13.072;2022-07-06T15:20:09;1.80;;;0.53;;
14756;SDS011;40502;47.710;13.072;2022-07-06T15:23:14;1.57;;;0.70;;
14756;SDS011;40502;47.710;13.072;2022-07-06T15:26:18;1.23;;;0.70;;
14756;SDS011;40502;47.710;13.072;2022-07-06T15:29:22;1.03;;;0.40;;
14756;SDS011;40502;47.710;13.072;2022-07-06T15:32:27;1.10;;;0.60;;
14756;SDS011;40502;47.710;13.072;2022-07-06T15:35:33;1.93;;;0.60;;
14756;SDS011;40502;47.710;13.072;2022-07-06T15:38:37;0.97;;;0.73;;
14756;SDS011;40502;47.710;13.072;2022-07-06T15:41:41;1.07;;;0.47;;
14756;SDS011;40502;47.710;13.072;2022-07-06T15:44:45;2.30;;;0.77;;
14756;SDS011;40502;47.710;13.072;2022-07-06T15:47:52;2.07;;;0.50;;
14756;SDS011;40502;47.710;13.072;2022-07-06T15:50:56;0.80;;;0.50;;
14756;SDS011;40502;47.710;13.072;2022-07-06T15:54:02;2.27;;;0.60;;
14756;SDS011;40502;47.710;13.072;2022-07-06T15:57:06;1.23;;;0.60;;
14756;SDS011;40502;47.710;13.072;2022-07-06T16:00:10;0.83;;;0.57;;
14756;SDS011;40502;47.710;13.072;2022-07-06T16:03:15;0.53;;;0.50;;
14756;SDS011;40502;47.710;13.072;2022-07-06T16:06:28;0.57;;;0.57;;
14756;SDS011;40502;47.710;13.072;2022-07-06T16:09:54;1.40;;;0.50;;
14756;SDS011;40502;47.710;13.072;2022-07-06T16:12:58;1.33;;;0.70;;
14756;SDS011;40502;47.710;13.072;2022-07-06T16:16:04;0.97;;;0.53;;
14756;SDS011;40502;47.710;13.072;2022-07-06T16:19:10;0.80;;;0.53;;
14756;SDS011;40502;47.710;13.072;2022-07-06T16:22:15;1.00;;;0.50;;
14756;SDS011;40502;47.710;13.072;2022-07-06T16:25:19;0.70;;;0.40;;
14756;SDS011;40502;47.710;13.072;2022-07-06T16:28:24;1.13;;;0.57;;
14756;SDS011;40502;47.710;13.072;2022-07-06T16:31:27;1.17;;;0.70;;
14756;SDS011;40502;47.710;13.072;2022-07-06T16:34:33;1.00;;;0.60;;
14756;SDS011;40502;47.710;13.072;2022-07-06T16:37:37;1.50;;;0.60;;
14756;SDS011;40502;47.710;13.072;2022-07-06T16:40:41;1.03;;;0.70;;
14756;SDS011;40502;47.710;13.072;2022-07-06T16:43:44;1.87;;;0.60;;
14756;SDS011;40502;47.710;13.072;2022-07-06T16:46:49;0.67;;;0.47;;
14756;SDS011;40502;47.710;13.072;2022-07-06T16:49:54;2.43;;;0.50;;
14756;SDS011;40502;47.710;13.072;2022-07-06T16:52:59;1.57;;;0.60;;
14756;SDS011;40502;47.710;13.072;2022-07-06T16:56:03;1.03;;;0.63;;
14756;SDS011;40502;47.710;13.072;2022-07-06T16:59:08;0.73;;;0.50;;
14756;SDS011;40502;47.710;13.072;2022-07-06T17:02:12;0.87;;;0.57;;
14756;SDS011;40502;47.710;13.072;2022-07-06T17:05:19;1.13;;;0.60;;
14756;SDS011;40502;47.710;13.072;2022-07-06T17:08:23;0.80;;;0.40;;
14756;SDS011;40502;47.710;13.072;2022-07-06T17:11:27;0.70;;;0.40;;
14756;SDS011;40502;47.710;13.072;2022-07-06T17:14:31;0.70;;;0.40;;
14756;SDS011;40502;47.710;13.072;2022-07-06T17:17:35;0.73;;;0.60;;
14756;SDS011;40502;47.710;13.072;2022-07-06T17:20:40;0.83;;;0.50;;
14756;SDS011;40502;47.710;13.072;2022-07-06T17:23:44;1.13;;;0.50;;
14756;SDS011;40502;47.710;13.072;2022-07-06T17:26:48;1.17;;;0.40;;
14756;SDS011;40502;47.710;13.072;2022-07-06T17:29:52;2.03;;;0.63;;
14756;SDS011;40502;47.710;13.072;2022-07-06T17:32:56;1.07;;;0.57;;
14756;SDS011;40502;47.710;13.072;2022-07-06T17:36:01;0.87;;;0.40;;
14756;SDS011;40502;47.710;13.072;2022-07-06T17:39:05;0.87;;;0.60;;
14756;SDS011;40502;47.710;13.072;2022-07-06T17:42:09;1.03;;;0.63;;
14756;SDS011;40502;47.710;13.072;2022-07-06T17:45:13;1.13;;;0.70;;
14756;SDS011;40502;47.710;13.072;2022-07-06T17:48:16;1.10;;;0.63;;
14756;SDS011;40502;47.710;13.072;2022-07-06T17:51:21;0.60;;;0.60;;
14756;SDS011;40502;47.710;13.072;2022-07-06T17:54:25;0.87;;;0.50;;
14756;SDS011;40502;47.710;13.072;2022-07-06T17:57:29;0.57;;;0.37;;
14756;SDS011;40502;47.710;13.072;2022-07-06T18:00:33;0.90;;;0.40;;
14756;SDS011;40502;47.710;13.072;2022-07-06T18:03:37;1.03;;;0.50;;
14756;SDS011;40502;47.710;13.072;2022-07-06T18:06:42;0.87;;;0.60;;
14756;SDS011;40502;47.710;13.072;2022-07-06T18:09:46;1.13;;;0.70;;
14756;SDS011;40502;47.710;13.072;2022-07-06T18:12:50;1.27;;;0.60;;
14756;SDS011;40502;47.710;13.072;2022-07-06T18:15:54;1.07;;;0.50;;
14756;SDS011;40502;47.710;13.072;2022-07-06T18:18:58;0.80;;;0.40;;
14756;SDS011;40502;47.710;13.072;2022-07-06T18:22:04;0.80;;;0.40;;